Time;durP1;ratioP1;P1;durP2;ratioP2;P2;SDS_P1;SDS_P2;PMS_P1;PMS_P2;Temp;Humidity;BMP_temperature;BMP_pressure;BME280_temperature;BME280_humidity;BME280_pressure;Samples;Min_cycle;Max_cycle;Signal;HPM_P1;HPM_P2
2022/07/26 00:02:03;;;;;;;6.97;3.90;;;18.30;99.90;;;;;;5008434;28;20566;-82
2022/07/26 00:04:29;;;;;;;7.90;4.32;;;18.10;99.90;;;;;;5010668;28;20202;-82
2022/07/26 00:06:54;;;;;;;8.07;4.45;;;18.20;99.90;;;;;;5009269;28;20192;-83
2022/07/26 00:09:20;;;;;;;5.47;4.80;;;18.30;99.90;;;;;;5009311;28;20269;-85
2022/07/26 00:11:45;;;;;;;5.30;4.38;;;18.40;99.90;;;;;;5008578;28;20203;-82
2022/07/26 00:14:11;;;;;;;7.35;4.60;;;18.30;99.90;;;;;;5009517;28;20203;-83
2022/07/26 00:16:37;;;;;;;4.80;4.30;;;18.10;99.90;;;;;;5008790;28;20190;-83
2022/07/26 00:19:06;;;;;;;5.93;4.95;;;19.10;99.90;;;;;;5015427;28;20180;-84
2022/07/26 00:21:33;;;;;;;11.15;4.47;;;18.10;99.90;;;;;;5015379;28;20204;-82
2022/07/26 00:23:59;;;;;;;6.45;4.78;;;18.30;99.90;;;;;;5009143;28;20205;-83
2022/07/26 00:26:24;;;;;;;5.35;3.40;;;17.80;99.90;;;;;;5009506;28;20634;-82
2022/07/26 00:28:50;;;;;;;4.78;3.88;;;17.70;99.90;;;;;;5009386;28;21243;-83
2022/07/26 00:31:15;;;;;;;6.00;4.10;;;17.70;99.90;;;;;;5008290;28;20199;-83
2022/07/26 00:33:41;;;;;;;7.25;4.10;;;17.90;99.90;;;;;;5008471;28;20239;-83
2022/07/26 00:36:07;;;;;;;6.30;3.88;;;17.70;99.90;;;;;;5007854;28;20185;-83
2022/07/26 00:38:32;;;;;;;5.90;3.50;;;17.60;99.90;;;;;;5004923;28;20179;-83
2022/07/26 00:40:58;;;;;;;4.53;3.20;;;18.80;99.90;;;;;;5004966;28;20212;-83
2022/07/26 00:43:24;;;;;;;4.47;3.40;;;17.50;99.90;;;;;;5007157;28;20188;-82
2022/07/26 00:45:50;;;;;;;6.53;3.60;;;17.50;99.90;;;;;;5007915;28;20278;-84
2022/07/26 00:48:16;;;;;;;5.40;3.08;;;18.50;99.90;;;;;;5013685;28;20182;-84
2022/07/26 00:50:41;;;;;;;5.22;3.40;;;17.40;99.90;;;;;;5012107;28;20199;-84
2022/07/26 00:53:07;;;;;;;4.65;3.60;;;17.40;99.90;;;;;;5011040;28;20196;-82
2022/07/26 00:55:33;;;;;;;5.72;3.40;;;18.30;99.90;;;;;;5011499;28;20742;-83
2022/07/26 00:58:00;;;;;;;4.90;3.40;;;17.20;99.90;;;;;;5010888;28;20216;-83
2022/07/26 01:00:27;;;;;;;8.52;3.95;;;17.60;99.90;;;;;;5010611;28;20590;-84
2022/07/26 01:02:53;;;;;;;6.43;4.00;;;17.20;99.90;;;;;;5012938;28;20203;-83
2022/07/26 01:05:20;;;;;;;4.57;3.63;;;17.70;99.90;;;;;;5020323;28;20207;-83
2022/07/26 01:07:47;;;;;;;7.50;3.92;;;17.90;99.90;;;;;;5011204;28;20194;-84
2022/07/26 01:10:13;;;;;;;5.32;3.70;;;17.80;99.90;;;;;;5010824;28;20653;-83
2022/07/26 01:12:42;;;;;;;7.93;3.65;;;17.00;99.90;;;;;;5010961;28;20214;-84
2022/07/26 01:15:10;;;;;;;5.93;3.30;;;16.90;99.90;;;;;;5010566;28;20210;-83
2022/07/26 01:17:36;;;;;;;8.30;3.67;;;16.90;99.90;;;;;;5013234;28;20626;-82
2022/07/26 01:20:03;;;;;;;5.20;3.70;;;18.10;99.90;;;;;;5010720;28;20231;-83
2022/07/26 01:22:29;;;;;;;5.13;3.80;;;17.00;99.90;;;;;;5012486;28;20845;-82
2022/07/26 01:24:54;;;;;;;7.45;4.13;;;17.40;99.90;;;;;;5011944;28;20191;-83
2022/07/26 01:27:20;;;;;;;6.95;4.00;;;17.00;99.90;;;;;;5011436;28;20179;-83
2022/07/26 01:29:45;;;;;;;4.88;3.30;;;17.00;99.90;;;;;;5012175;28;20184;-83
2022/07/26 01:32:11;;;;;;;7.85;3.67;;;17.70;99.90;;;;;;5011901;28;20206;-83
2022/07/26 01:34:37;;;;;;;7.13;4.25;;;17.90;99.90;;;;;;5011292;28;20208;-83
2022/07/26 01:37:04;;;;;;;7.45;3.85;;;16.90;99.90;;;;;;5010561;28;20230;-83
2022/07/26 01:39:30;;;;;;;7.45;4.10;;;16.90;99.90;;;;;;5012130;28;20172;-84
2022/07/26 01:41:55;;;;;;;9.07;3.65;;;17.30;99.90;;;;;;5010812;28;20203;-83
2022/07/26 01:44:22;;;;;;;5.53;4.00;;;17.00;99.90;;;;;;5010896;28;20339;-83
2022/07/26 01:46:48;;;;;;;5.80;3.53;;;17.40;99.90;;;;;;5010474;28;20175;-83
2022/07/26 01:49:13;;;;;;;6.65;3.63;;;17.40;99.90;;;;;;5012451;28;20262;-83
2022/07/26 01:51:39;;;;;;;3.95;3.10;;;17.10;99.90;;;;;;5011414;28;20208;-82
2022/07/26 01:54:05;;;;;;;7.38;3.60;;;17.20;99.90;;;;;;5010073;28;20270;-82
2022/07/26 01:56:30;;;;;;;6.30;3.13;;;17.90;99.90;;;;;;5010529;28;20680;-83
2022/07/26 01:58:56;;;;;;;5.50;3.80;;;17.40;99.90;;;;;;5009286;28;20187;-82
2022/07/26 02:01:21;;;;;;;5.97;3.20;;;18.00;99.90;;;;;;5009743;28;20199;-83
2022/07/26 02:03:47;;;;;;;6.18;3.30;;;17.90;99.90;;;;;;5009078;28;20206;-82
2022/07/26 02:06:12;;;;;;;8.68;3.45;;;17.30;99.90;;;;;;5009727;28;20202;-83
2022/07/26 02:08:38;;;;;;;8.95;3.00;;;17.40;99.90;;;;;;5009923;28;20188;-82
2022/07/26 02:11:04;;;;;;;7.20;3.95;;;18.40;99.90;;;;;;5010332;28;20281;-83
2022/07/26 02:13:33;;;;;;;6.45;3.50;;;17.30;99.90;;;;;;5009485;28;20192;-83
2022/07/26 02:15:59;;;;;;;4.32;3.40;;;17.30;99.90;;;;;;5009578;28;20642;-83
2022/07/26 02:18:27;;;;;;;6.07;3.22;;;17.70;99.90;;;;;;5009113;28;20190;-83
2022/07/26 02:20:53;;;;;;;5.30;3.28;;;17.30;99.90;;;;;;5010535;28;20215;-83
2022/07/26 02:23:19;;;;;;;6.47;3.30;;;17.30;99.90;;;;;;5009541;28;20183;-83
2022/07/26 02:25:44;;;;;;;6.80;3.17;;;18.30;99.90;;;;;;5009097;28;20187;-83
2022/07/26 02:28:10;;;;;;;8.00;3.55;;;17.30;99.90;;;;;;5010406;28;20231;-83
2022/07/26 02:30:37;;;;;;;8.25;3.70;;;17.30;99.90;;;;;;5009636;28;20279;-84
2022/07/26 02:33:02;;;;;;;6.85;3.50;;;18.20;99.90;;;;;;5009688;28;20262;-83
2022/07/26 02:35:30;;;;;;;8.93;3.47;;;17.00;99.90;;;;;;5010170;28;20262;-83
2022/07/26 02:38:01;;;;;;;5.70;2.95;;;18.10;99.90;;;;;;5007831;28;20553;-84
2022/07/26 02:40:27;;;;;;;4.60;3.35;;;17.10;99.90;;;;;;5009748;28;20184;-83
2022/07/26 02:42:52;;;;;;;5.88;3.25;;;17.80;99.90;;;;;;5008756;28;20187;-83
2022/07/26 02:45:18;;;;;;;7.28;3.30;;;17.50;99.90;;;;;;5008418;28;20193;-83
2022/07/26 02:47:51;;;;;;;5.72;2.97;;;17.10;99.90;;;;;;5009003;28;20259;-84
2022/07/26 02:50:18;;;;;;;5.43;3.20;;;17.70;99.90;;;;;;5007868;28;20262;-83
2022/07/26 02:52:48;;;;;;;8.60;2.80;;;17.70;99.90;;;;;;5008521;28;20179;-82
2022/07/26 02:55:15;;;;;;;5.80;2.72;;;17.70;99.90;;;;;;5009773;28;20204;-83
2022/07/26 02:57:40;;;;;;;5.97;2.17;;;17.80;99.90;;;;;;5023810;28;20183;-83
2022/07/26 03:00:08;;;;;;;5.68;2.40;;;17.50;99.90;;;;;;5009127;28;20206;-84
2022/07/26 03:02:34;;;;;;;5.53;2.17;;;17.60;99.90;;;;;;5009203;28;20305;-82
2022/07/26 03:05:01;;;;;;;5.45;2.50;;;18.40;99.90;;;;;;5008125;28;20280;-83
2022/07/26 03:07:26;;;;;;;6.22;2.30;;;18.90;99.90;;;;;;5009128;28;20238;-83
2022/07/26 03:09:52;;;;;;;4.00;1.88;;;17.30;99.90;;;;;;5008357;28;20556;-83
2022/07/26 03:12:18;;;;;;;6.82;2.33;;;18.00;99.90;;;;;;5008128;28;20226;-83
2022/07/26 03:14:43;;;;;;;6.30;2.10;;;18.00;99.90;;;;;;5006095;28;20624;-83
2022/07/26 03:17:09;;;;;;;6.68;2.30;;;17.90;99.90;;;;;;5005203;28;20202;-82
2022/07/26 03:19:34;;;;;;;2.60;2.03;;;18.80;99.90;;;;;;5004222;28;20226;-82
2022/07/26 03:22:00;;;;;;;4.10;2.22;;;17.90;99.90;;;;;;5005086;28;20612;-85
2022/07/26 03:24:25;;;;;;;6.65;2.05;;;17.90;99.90;;;;;;5006841;28;20689;-83
2022/07/26 03:26:51;;;;;;;3.58;2.00;;;18.00;99.90;;;;;;5004902;28;20201;-84
2022/07/26 03:30:07;;;;;;;3.85;2.15;;;17.90;99.90;;;;;;5015696;28;20199;-86
2022/07/26 04:47:50;;;;;;;5.68;1.58;;;17.90;99.90;;;;;;5026016;28;20222;-85
2022/07/26 05:01:38;;;;;;;4.72;1.27;;;19.00;99.90;;;;;;4933961;29;20225;-85
2022/07/26 05:11:30;;;;;;;4.53;1.00;;;22.00;1.00;;;;;;5024845;28;20353;-87
2022/07/26 05:14:02;;;;;;;3.28;1.38;;;23.00;99.90;;;;;;5023344;28;20253;-86
2022/07/26 05:16:32;;;;;;;2.47;1.00;;;23.20;99.90;;;;;;5024819;28;20250;-86
2022/07/26 05:19:00;;;;;;;4.80;1.30;;;23.60;1.00;;;;;;5013812;28;20203;-85
2022/07/26 05:21:53;;;;;;;5.15;1.63;;;23.90;99.90;;;;;;5008092;28;20211;-85
2022/07/26 05:28:29;;;;;;;3.45;1.15;;;24.60;99.90;;;;;;4973384;28;20208;-85
2022/07/26 05:42:56;;;;;;;3.65;1.25;;;23.30;1.00;;;;;;4948417;29;20216;-85
2022/07/26 05:45:44;;;;;;;7.68;1.55;;;23.90;99.90;;;;;;4949460;28;20190;-83
2022/07/26 05:48:40;;;;;;;3.92;1.27;;;24.60;1.00;;;;;;4945608;28;20203;-83
2022/07/26 05:51:10;;;;;;;3.80;1.35;;;25.00;99.90;;;;;;4993975;28;20211;-83
2022/07/26 05:54:53;;;;;;;3.28;1.58;;;25.20;1.00;;;;;;4997907;28;20222;-85
2022/07/26 05:57:55;;;;;;;5.88;1.60;;;25.40;99.90;;;;;;4947452;29;20218;-86
2022/07/26 06:04:50;;;;;;;5.07;1.55;;;25.00;1.00;;;;;;4871524;29;20196;-83
2022/07/26 06:07:57;;;;;;;4.72;1.52;;;25.20;1.00;;;;;;4868273;29;20201;-82
2022/07/26 06:10:41;;;;;;;4.60;1.40;;;25.40;99.90;;;;;;4874701;29;20228;-83
2022/07/26 06:13:29;;;;;;;5.40;1.40;;;25.30;1.00;;;;;;4970623;29;20216;-84
2022/07/26 06:17:07;;;;;;;2.80;1.30;;;25.50;1.00;;;;;;4973544;29;20197;-86
2022/07/26 06:20:17;;;;;;;4.70;1.48;;;25.80;1.00;;;;;;4953283;28;20202;-83
2022/07/26 06:26:33;;;;;;;3.47;1.63;;;25.70;99.90;;;;;;4939263;29;20201;-83
2022/07/26 06:29:31;;;;;;;3.33;1.38;;;25.20;99.90;;;;;;4926716;29;20227;-84
2022/07/26 06:35:20;;;;;;;4.60;1.77;;;23.80;1.00;;;;;;4952400;28;20293;-85
2022/07/26 06:45:08;;;;;;;5.38;1.90;;;23.10;99.90;;;;;;4931889;29;20198;-87
2022/07/26 06:52:05;;;;;;;5.30;2.05;;;22.40;1.00;;;;;;4919375;29;20271;-86
2022/07/26 06:56:01;;;;;;;5.68;2.20;;;22.20;1.00;;;;;;4956751;28;20253;-86
2022/07/26 06:59:05;;;;;;;4.50;2.33;;;22.20;99.90;;;;;;4975445;28;20269;-86
2022/07/26 07:01:32;;;;;;;7.07;2.47;;;22.30;99.90;;;;;;5020203;28;20241;-83
2022/07/26 07:04:00;;;;;;;5.82;2.28;;;22.00;1.00;;;;;;5007629;28;20218;-83
2022/07/26 07:06:39;;;;;;;4.47;2.38;;;21.70;47.50;;;;;;5023609;28;20404;-85
2022/07/26 07:09:28;;;;;;;8.80;2.80;;;21.60;99.90;;;;;;5020109;28;20961;-85
2022/07/26 07:12:17;;;;;;;5.18;2.42;;;21.60;99.90;;;;;;5024530;28;20218;-85
2022/07/26 07:15:34;;;;;;;4.85;2.50;;;21.70;99.90;;;;;;5026373;28;20218;-86
2022/07/26 07:18:28;;;;;;;5.15;2.33;;;21.80;99.90;;;;;;4983326;28;20218;-81
2022/07/26 07:21:02;;;;;;;4.72;2.35;;;22.10;67.70;;;;;;5009726;28;20263;-83
2022/07/26 07:23:56;;;;;;;6.35;2.70;;;22.40;1.00;;;;;;5034803;28;20179;-82
2022/07/26 07:26:24;;;;;;;6.63;2.58;;;22.60;1.00;;;;;;5021321;28;20183;-83
2022/07/26 07:32:37;;;;;;;7.40;2.00;;;22.30;1.00;;;;;;4977037;28;20211;-84
2022/07/26 07:35:45;;;;;;;4.78;2.10;;;22.00;57.60;;;;;;4972246;28;20242;-84
2022/07/26 07:38:42;;;;;;;5.15;2.47;;;22.10;99.90;;;;;;5031673;28;20255;-84
2022/07/26 07:41:27;;;;;;;5.22;2.20;;;21.90;99.90;;;;;;5023675;28;20342;-82
2022/07/26 07:44:00;;;;;;;9.18;2.90;;;21.80;99.90;;;;;;5026347;28;20366;-84
2022/07/26 07:46:44;;;;;;;8.93;3.05;;;21.80;99.90;;;;;;5017668;28;20270;-84
2022/07/26 07:49:16;;;;;;;7.07;2.75;;;21.80;99.90;;;;;;5025481;28;20179;-83
2022/07/26 07:52:06;;;;;;;9.65;2.70;;;21.90;99.90;;;;;;5016322;28;20228;-84
2022/07/26 07:55:10;;;;;;;8.98;3.17;;;22.10;99.90;;;;;;4970572;28;20218;-83
2022/07/26 07:58:18;;;;;;;8.40;3.10;;;22.40;99.90;;;;;;5024582;28;20211;-84
2022/07/26 08:00:56;;;;;;;9.25;2.83;;;22.50;99.90;;;;;;4998341;28;20212;-83
2022/07/26 08:03:43;;;;;;;6.72;2.58;;;22.40;1.00;;;;;;5022660;28;20190;-82
2022/07/26 08:06:09;;;;;;;4.97;2.22;;;22.30;1.00;;;;;;5021871;28;20445;-82
2022/07/26 08:08:38;;;;;;;4.95;2.33;;;22.20;1.00;;;;;;4980096;28;20207;-83
2022/07/26 08:11:08;;;;;;;3.17;2.22;;;22.30;99.90;;;;;;5030487;28;20209;-82
2022/07/26 08:13:35;;;;;;;3.75;2.08;;;22.50;99.90;;;;;;5024280;28;20183;-80
2022/07/26 08:16:00;;;;;;;5.78;2.70;;;22.70;1.00;;;;;;5018288;28;20330;-80
2022/07/26 08:18:27;;;;;;;4.85;2.45;;;23.20;1.00;;;;;;5006101;28;20294;-83
2022/07/26 08:20:52;;;;;;;3.50;2.20;;;23.20;99.90;;;;;;5008334;28;20269;-81
2022/07/26 08:23:19;;;;;;;6.13;2.60;;;23.20;99.90;;;;;;5009875;28;20194;-80
2022/07/26 08:25:45;;;;;;;6.22;2.90;;;22.90;99.90;;;;;;5006751;28;20257;-80
2022/07/26 08:28:11;;;;;;;6.68;3.05;;;22.70;1.00;;;;;;5005842;28;20211;-80
2022/07/26 08:30:37;;;;;;;7.68;2.83;;;22.40;1.00;;;;;;5006504;28;20222;-80
2022/07/26 08:33:02;;;;;;;9.70;3.47;;;22.10;99.90;;;;;;5004157;28;20175;-80
2022/07/26 08:35:28;;;;;;;8.85;2.88;;;21.90;97.30;;;;;;5014904;28;20210;-82
2022/07/26 08:37:55;;;;;;;10.52;3.30;;;21.90;1.00;;;;;;5017382;28;20218;-83
2022/07/26 08:40:21;;;;;;;8.38;3.40;;;22.30;99.90;;;;;;4986457;28;20188;-82
2022/07/26 08:42:51;;;;;;;3.95;2.83;;;22.50;99.90;;;;;;5017723;28;20191;-81
2022/07/26 08:45:26;;;;;;;6.55;3.00;;;22.80;1.00;;;;;;5033541;28;20195;-82
2022/07/26 08:47:53;;;;;;;3.80;2.80;;;23.00;1.00;;;;;;5000362;28;20225;-80
2022/07/26 08:50:19;;;;;;;4.88;3.30;;;22.90;1.00;;;;;;5009244;28;20210;-80
2022/07/26 08:52:45;;;;;;;5.38;3.10;;;22.90;1.00;;;;;;5016575;28;20195;-81
2022/07/26 08:55:19;;;;;;;4.28;2.47;;;22.90;1.00;;;;;;5017675;28;20481;-79
2022/07/26 08:57:46;;;;;;;8.82;2.78;;;23.00;1.00;;;;;;5017308;28;20180;-82
2022/07/26 09:00:28;;;;;;;7.88;2.60;;;23.20;13.10;;;;;;5016015;28;20229;-81
2022/07/26 09:02:54;;;;;;;7.03;2.97;;;23.50;1.00;;;;;;5017003;28;20191;-82
2022/07/26 09:05:30;;;;;;;13.68;4.10;;;23.60;99.90;;;;;;5015868;28;20973;-81
2022/07/26 09:07:57;;;;;;;58.17;6.82;;;23.80;99.90;;;;;;5020137;28;20191;-80
2022/07/26 09:10:23;;;;;;;13.77;3.78;;;23.90;1.00;;;;;;5029413;28;20239;-80
2022/07/26 09:12:54;;;;;;;15.07;3.13;;;24.00;1.00;;;;;;5022355;28;20180;-80
2022/07/26 09:15:22;;;;;;;10.43;2.47;;;23.50;1.00;;;;;;5023301;28;20242;-81
2022/07/26 09:17:51;;;;;;;6.90;2.55;;;23.50;1.00;;;;;;5022110;28;20243;-82
2022/07/26 09:20:34;;;;;;;5.50;2.30;;;23.90;1.00;;;;;;5028037;28;20191;-80
2022/07/26 09:23:08;;;;;;;4.57;2.13;;;24.00;1.00;;;;;;5023643;28;20187;-83
2022/07/26 09:25:37;;;;;;;4.22;2.15;;;23.80;99.90;;;;;;5026485;28;20214;-83
2022/07/26 09:28:19;;;;;;;4.70;2.20;;;23.70;99.90;;;;;;5027224;28;20180;-82
2022/07/26 09:30:52;;;;;;;5.05;2.33;;;23.70;99.90;;;;;;5022564;28;20211;-81
2022/07/26 09:33:17;;;;;;;4.45;2.70;;;23.90;99.90;;;;;;5030155;28;20260;-82
2022/07/26 09:36:00;;;;;;;6.47;2.50;;;23.70;99.90;;;;;;5019491;28;20246;-79
2022/07/26 09:38:44;;;;;;;8.68;2.70;;;23.40;1.00;;;;;;5029499;28;20187;-80
2022/07/26 09:41:22;;;;;;;4.88;2.50;;;23.50;42.80;;;;;;5028580;28;20365;-80
2022/07/26 09:43:49;;;;;;;5.90;2.17;;;24.00;1.00;;;;;;5029703;28;20191;-78
2022/07/26 09:46:15;;;;;;;3.10;1.95;;;24.20;99.90;;;;;;5022409;28;20184;-81
2022/07/26 09:48:41;;;;;;;2.80;2.08;;;24.50;16.90;;;;;;5021783;28;20575;-82
2022/07/26 09:51:07;;;;;;;3.72;1.60;;;24.20;1.00;;;;;;5021527;28;20203;-82
2022/07/26 09:53:46;;;;;;;4.05;1.40;;;23.70;1.00;;;;;;5020243;28;20187;-82
2022/07/26 09:56:12;;;;;;;3.47;1.20;;;23.00;1.00;;;;;;5024984;28;20175;-80
2022/07/26 09:58:38;;;;;;;3.53;1.27;;;22.70;1.00;;;;;;5025233;28;20164;-82
2022/07/26 10:01:05;;;;;;;1.55;0.95;;;21.80;99.90;;;;;;5031196;28;20290;-80
2022/07/26 10:03:31;;;;;;;1.05;0.88;;;21.30;1.00;;;;;;5022694;28;20171;-79
2022/07/26 10:05:58;;;;;;;2.22;0.80;;;21.20;99.90;;;;;;5016795;28;20286;-81
2022/07/26 10:08:25;;;;;;;2.47;0.90;;;20.90;99.90;;;;;;5020206;28;20215;-80
2022/07/26 10:11:02;;;;;;;1.40;0.85;;;20.90;99.90;;;;;;5017940;28;20218;-82
2022/07/26 10:13:29;;;;;;;2.17;0.88;;;21.10;99.90;;;;;;5027797;28;20199;-83
2022/07/26 10:16:38;;;;;;;2.50;1.50;;;21.10;99.90;;;;;;5023532;28;20187;-82
2022/07/26 10:19:37;;;;;;;3.10;1.08;;;20.90;99.90;;;;;;5023155;28;20238;-83
2022/07/26 10:22:43;;;;;;;1.17;0.95;;;20.70;99.90;;;;;;5020350;28;20226;-79
2022/07/26 10:25:17;;;;;;;1.67;1.02;;;20.50;1.00;;;;;;4972367;28;20215;-81
2022/07/26 10:27:49;;;;;;;1.60;0.68;;;20.20;1.00;;;;;;5018526;28;20201;-81
2022/07/26 10:30:32;;;;;;;0.93;0.70;;;20.70;1.00;;;;;;5025821;28;20239;-80
2022/07/26 10:33:26;;;;;;;1.05;0.80;;;20.40;1.00;;;;;;5025948;28;20183;-80
2022/07/26 10:35:53;;;;;;;1.23;0.75;;;20.60;1.00;;;;;;5022516;28;20266;-80
2022/07/26 10:42:14;;;;;;;0.80;0.77;;;20.90;99.90;;;;;;5025333;28;20627;-83
2022/07/26 10:44:43;;;;;;;1.10;0.70;;;21.50;99.90;;;;;;5025820;28;20180;-83
2022/07/26 10:47:15;;;;;;;1.40;1.02;;;21.80;99.90;;;;;;5025040;28;20214;-80
2022/07/26 10:49:54;;;;;;;1.58;0.80;;;22.50;8.60;;;;;;5014802;28;20194;-83
2022/07/26 10:52:27;;;;;;;1.05;0.80;;;21.80;99.90;;;;;;5030869;28;20241;-83
2022/07/26 10:55:24;;;;;;;1.35;0.68;;;21.70;1.00;;;;;;5024579;28;20254;-84
2022/07/26 10:57:56;;;;;;;0.82;0.80;;;21.80;1.00;;;;;;5019647;28;20243;-84
2022/07/26 11:00:33;;;;;;;1.02;0.82;;;21.90;1.00;;;;;;5023887;28;20218;-85
2022/07/26 11:03:09;;;;;;;1.55;1.15;;;21.90;99.90;;;;;;5023048;28;20206;-84
2022/07/26 11:05:40;;;;;;;1.23;0.75;;;22.00;1.00;;;;;;5022747;28;20191;-83
2022/07/26 11:08:14;;;;;;;1.55;0.88;;;22.30;1.00;;;;;;5032891;28;20195;-84
2022/07/26 11:10:48;;;;;;;1.65;0.80;;;22.60;1.00;;;;;;5014210;28;20218;-82
2022/07/26 11:13:24;;;;;;;1.77;1.10;;;23.00;99.90;;;;;;5020790;28;20207;-83
2022/07/26 11:15:58;;;;;;;1.83;1.08;;;23.00;1.00;;;;;;5024691;28;20203;-84
2022/07/26 11:18:29;;;;;;;1.75;0.90;;;23.30;99.90;;;;;;5031595;28;20240;-83
2022/07/26 11:21:25;;;;;;;1.23;0.77;;;22.60;1.00;;;;;;5004881;28;20215;-82
2022/07/26 11:23:51;;;;;;;1.75;1.20;;;23.60;1.00;;;;;;4996086;28;20200;-82
2022/07/26 11:26:30;;;;;;;1.75;1.00;;;23.40;99.90;;;;;;5022896;28;20226;-83
2022/07/26 11:29:03;;;;;;;1.95;1.10;;;23.40;1.00;;;;;;5021760;28;20202;-82
2022/07/26 11:31:42;;;;;;;2.50;1.40;;;23.40;1.00;;;;;;4988680;28;20227;-84
2022/07/26 11:34:44;;;;;;;1.98;1.30;;;23.50;1.00;;;;;;5023559;28;20258;-83
2022/07/26 11:37:14;;;;;;;2.63;1.60;;;23.20;1.00;;;;;;5021300;28;20198;-83
2022/07/26 11:39:40;;;;;;;1.65;1.10;;;22.90;1.00;;;;;;5020641;28;20199;-84
2022/07/26 11:42:18;;;;;;;3.63;1.83;;;22.30;1.00;;;;;;5020357;28;20215;-82
2022/07/26 11:45:08;;;;;;;2.53;1.65;;;22.40;99.90;;;;;;5022642;28;20214;-82
2022/07/26 11:47:37;;;;;;;1.38;1.00;;;21.90;96.90;;;;;;5020724;28;20187;-82
2022/07/26 11:50:48;;;;;;;2.63;1.30;;;21.80;99.90;;;;;;5023215;28;20243;-83
2022/07/26 11:53:22;;;;;;;2.45;1.40;;;21.80;99.90;;;;;;5015197;28;20222;-83
2022/07/26 11:55:51;;;;;;;2.20;1.40;;;22.20;99.90;;;;;;5020365;28;20211;-83
2022/07/26 11:58:28;;;;;;;2.13;1.38;;;22.20;99.90;;;;;;5015615;28;20191;-82
2022/07/26 12:00:54;;;;;;;2.53;1.48;;;22.40;1.00;;;;;;5027261;28;20207;-83
2022/07/26 12:03:20;;;;;;;2.22;1.30;;;22.60;1.00;;;;;;4999094;28;20187;-83
2022/07/26 12:06:04;;;;;;;1.75;1.13;;;22.60;1.00;;;;;;4997005;28;20183;-84
2022/07/26 12:09:03;;;;;;;2.15;1.48;;;22.90;99.90;;;;;;5015678;28;20200;-82
2022/07/26 12:11:42;;;;;;;1.15;0.90;;;23.20;99.90;;;;;;5026874;28;20236;-83
2022/07/26 12:14:07;;;;;;;1.45;0.80;;;23.30;1.00;;;;;;5024749;28;20231;-82
2022/07/26 12:16:46;;;;;;;2.55;0.80;;;23.50;1.00;;;;;;5020169;28;20176;-81
2022/07/26 12:19:16;;;;;;;1.98;0.80;;;23.80;99.90;;;;;;5026956;28;20250;-83
2022/07/26 12:22:11;;;;;;;3.97;1.27;;;23.90;99.90;;;;;;5017675;28;20308;-82
2022/07/26 12:25:08;;;;;;;2.20;0.80;;;24.20;99.90;;;;;;5018865;28;20210;-81
2022/07/26 12:27:45;;;;;;;1.50;0.82;;;24.10;99.90;;;;;;5028531;28;20218;-83
2022/07/26 12:30:45;;;;;;;1.20;0.90;;;23.90;99.90;;;;;;5020368;28;20199;-81
2022/07/26 12:33:52;;;;;;;1.73;0.80;;;24.00;1.00;;;;;;5018921;28;20179;-82
2022/07/26 12:36:22;;;;;;;2.25;0.80;;;24.30;1.00;;;;;;5022387;28;20474;-81
2022/07/26 12:38:51;;;;;;;1.92;0.80;;;24.30;99.90;;;;;;5021503;28;20188;-82
2022/07/26 12:41:38;;;;;;;1.77;1.10;;;24.20;99.90;;;;;;5014222;28;20207;-84
2022/07/26 12:44:06;;;;;;;3.08;1.10;;;23.90;99.90;;;;;;5014591;28;20190;-83
2022/07/26 12:46:33;;;;;;;1.05;0.80;;;23.80;1.00;;;;;;5015277;28;20198;-82
2022/07/26 12:48:59;;;;;;;2.22;0.95;;;23.90;1.00;;;;;;5017280;28;20191;-84
2022/07/26 12:51:24;;;;;;;2.03;0.85;;;23.70;99.90;;;;;;5018665;28;20298;-83
2022/07/26 12:53:50;;;;;;;1.08;0.90;;;23.90;57.90;;;;;;5016708;28;20192;-84
2022/07/26 12:56:16;;;;;;;1.83;0.90;;;23.40;1.00;;;;;;5019783;28;20215;-81
2022/07/26 12:58:42;;;;;;;2.25;0.95;;;23.10;1.00;;;;;;5020417;28;20290;-82
2022/07/26 13:01:07;;;;;;;1.55;0.80;;;22.90;99.90;;;;;;5012911;28;20214;-82
2022/07/26 13:03:33;;;;;;;0.70;0.70;;;22.90;99.90;;;;;;5020643;28;20194;-83
2022/07/26 13:05:59;;;;;;;2.10;0.82;;;22.90;1.00;;;;;;5022401;28;20199;-80
2022/07/26 13:08:24;;;;;;;3.33;0.90;;;22.60;1.00;;;;;;5015773;28;20188;-81
2022/07/26 13:10:50;;;;;;;2.00;0.80;;;23.20;1.00;;;;;;5015803;28;20234;-82
2022/07/26 13:13:16;;;;;;;3.33;0.95;;;23.20;71.00;;;;;;5017444;28;20195;-83
2022/07/26 13:15:43;;;;;;;2.13;0.80;;;23.20;99.90;;;;;;5013066;28;20211;-82
2022/07/26 13:18:08;;;;;;;4.13;1.20;;;23.20;1.00;;;;;;5027905;28;20176;-83
2022/07/26 13:20:37;;;;;;;1.00;0.70;;;23.20;1.00;;;;;;5021136;28;20677;-82
2022/07/26 13:23:02;;;;;;;1.77;0.73;;;23.20;99.90;;;;;;5019525;28;20206;-85
2022/07/26 13:25:33;;;;;;;1.60;0.80;;;23.20;99.90;;;;;;5019007;28;20188;-86
2022/07/26 13:27:59;;;;;;;2.15;0.68;;;23.30;99.90;;;;;;5024794;28;20180;-84
2022/07/26 13:30:24;;;;;;;6.63;1.20;;;23.50;1.00;;;;;;5027136;28;20194;-84
2022/07/26 13:32:50;;;;;;;3.53;0.90;;;23.70;1.00;;;;;;5025019;28;20201;-85
2022/07/26 13:35:16;;;;;;;2.15;0.88;;;24.10;1.00;;;;;;5025657;28;20208;-84
2022/07/26 13:37:42;;;;;;;2.15;0.60;;;24.30;99.90;;;;;;5026039;28;20234;-83
2022/07/26 13:40:08;;;;;;;1.20;0.73;;;24.50;1.00;;;;;;5027095;28;20650;-85
2022/07/26 13:42:33;;;;;;;2.60;0.60;;;24.00;99.90;;;;;;5024508;28;20219;-84
2022/07/26 13:44:59;;;;;;;0.60;0.50;;;24.20;56.90;;;;;;5025249;28;20191;-86
2022/07/26 13:47:24;;;;;;;0.75;0.60;;;24.50;1.00;;;;;;5033740;28;20241;-85
2022/07/26 13:49:50;;;;;;;1.70;0.50;;;24.60;99.90;;;;;;5025449;28;20259;-84
2022/07/26 13:52:15;;;;;;;1.25;0.80;;;24.60;99.90;;;;;;5025064;28;20210;-85
2022/07/26 13:54:41;;;;;;;1.83;0.70;;;24.20;99.90;;;;;;5025354;28;20215;-85
2022/07/26 13:57:07;;;;;;;1.25;0.60;;;23.90;1.00;;;;;;5024378;28;20211;-85
2022/07/26 13:59:33;;;;;;;2.17;0.47;;;23.80;1.00;;;;;;5024653;28;20249;-83
2022/07/26 14:01:58;;;;;;;1.48;0.50;;;23.10;1.00;;;;;;5023975;28;20212;-85
2022/07/26 14:04:24;;;;;;;1.30;0.43;;;23.00;1.00;;;;;;5024727;28;20187;-84
2022/07/26 14:06:51;;;;;;;1.45;0.65;;;22.90;1.00;;;;;;5025775;28;20207;-84
2022/07/26 14:09:18;;;;;;;1.63;0.63;;;22.90;1.00;;;;;;5025577;28;20187;-84
2022/07/26 14:11:44;;;;;;;2.13;0.50;;;23.50;99.90;;;;;;5025265;28;20203;-83
2022/07/26 14:14:10;;;;;;;1.40;0.50;;;22.80;99.90;;;;;;5024340;28;20225;-84
2022/07/26 14:16:35;;;;;;;1.98;0.73;;;23.20;99.90;;;;;;5024635;28;20187;-84
2022/07/26 14:19:01;;;;;;;1.92;0.50;;;24.00;99.90;;;;;;5023940;28;20187;-85
2022/07/26 14:21:29;;;;;;;2.08;0.65;;;23.10;1.00;;;;;;5025409;28;20234;-84
2022/07/26 14:23:55;;;;;;;0.93;0.50;;;23.30;1.00;;;;;;5024845;28;20194;-85
2022/07/26 14:26:21;;;;;;;4.20;0.60;;;23.40;99.90;;;;;;5023847;28;20183;-84
2022/07/26 14:28:47;;;;;;;1.20;0.50;;;23.60;1.00;;;;;;5023914;28;20203;-85
2022/07/26 14:31:12;;;;;;;0.88;0.47;;;23.10;99.90;;;;;;5024115;28;20227;-85
2022/07/26 14:33:38;;;;;;;1.85;0.70;;;23.00;1.00;;;;;;5023628;28;20176;-84
2022/07/26 14:36:04;;;;;;;1.27;0.45;;;23.40;1.00;;;;;;5024344;28;20458;-83
2022/07/26 14:38:30;;;;;;;1.27;0.40;;;22.90;1.00;;;;;;5024707;28;20175;-84
2022/07/26 14:40:56;;;;;;;1.77;0.68;;;23.70;1.00;;;;;;5025379;28;20207;-85
2022/07/26 14:43:22;;;;;;;0.52;0.45;;;23.20;99.90;;;;;;5023079;28;20187;-84
2022/07/26 14:45:49;;;;;;;2.55;0.80;;;23.00;1.00;;;;;;5022779;28;20183;-84
2022/07/26 14:48:15;;;;;;;1.63;0.68;;;23.00;99.90;;;;;;5023401;28;20218;-85
2022/07/26 14:50:41;;;;;;;1.50;0.60;;;22.60;99.90;;;;;;5023916;28;20207;-84
2022/07/26 14:53:09;;;;;;;0.98;0.50;;;22.50;99.90;;;;;;5024058;28;20187;-85
2022/07/26 14:55:34;;;;;;;3.22;0.77;;;23.00;1.00;;;;;;5024600;28;20238;-83
2022/07/26 14:58:00;;;;;;;1.77;0.40;;;22.70;1.00;;;;;;5023095;28;20191;-83
2022/07/26 15:00:25;;;;;;;1.95;0.60;;;23.00;1.00;;;;;;5022948;28;20230;-84
2022/07/26 15:02:51;;;;;;;3.88;1.00;;;23.10;99.90;;;;;;5023566;28;20218;-84
2022/07/26 15:05:17;;;;;;;1.35;0.65;;;23.20;99.90;;;;;;5022067;28;20191;-85
2022/07/26 15:07:43;;;;;;;1.40;0.50;;;23.10;99.90;;;;;;5021611;28;20210;-84
2022/07/26 15:10:11;;;;;;;3.03;0.65;;;23.00;1.00;;;;;;5023569;28;20211;-85
2022/07/26 15:12:37;;;;;;;2.83;0.63;;;23.10;1.00;;;;;;5023716;28;20219;-83
2022/07/26 15:15:04;;;;;;;2.15;0.70;;;23.00;1.00;;;;;;5023387;28;20411;-83
2022/07/26 15:17:30;;;;;;;1.88;0.68;;;23.00;99.90;;;;;;5022705;28;20203;-85
2022/07/26 15:19:55;;;;;;;1.67;0.68;;;23.50;99.90;;;;;;5023361;28;20187;-85
2022/07/26 15:22:21;;;;;;;1.00;0.50;;;23.20;1.00;;;;;;5022535;28;20223;-84
2022/07/26 15:24:47;;;;;;;1.85;0.50;;;23.10;1.00;;;;;;5023608;28;20188;-83
2022/07/26 15:27:12;;;;;;;1.55;0.55;;;22.40;99.90;;;;;;5022271;28;20210;-85
2022/07/26 15:29:38;;;;;;;2.33;0.60;;;22.60;11.10;;;;;;5024051;28;20184;-83
2022/07/26 15:32:04;;;;;;;1.88;0.40;;;23.00;99.90;;;;;;5021569;28;20344;-86
2022/07/26 15:34:31;;;;;;;2.70;0.75;;;22.10;99.90;;;;;;5024025;28;20431;-84
2022/07/26 15:36:57;;;;;;;1.35;0.50;;;22.20;99.90;;;;;;5021769;28;20290;-84
2022/07/26 15:39:22;;;;;;;0.85;0.50;;;22.70;1.00;;;;;;5022186;28;20567;-84